Time;durP1;ratioP1;P1;durP2;ratioP2;P2;SDS_P1;SDS_P2;PMS_P1;PMS_P2;Temp;Humidity;BMP_temperature;BMP_pressure;BME280_temperature;BME280_humidity;BME280_pressure;Samples;Min_cycle;Max_cycle;Signal;HPM_P1;HPM_P2
2023/05/14 00:00:29;;;;;;;11.57;6.72;;;;;;;;;;5096587;28;20077;-77
2023/05/14 00:02:57;;;;;;;9.90;5.43;;;;;;;;;;5096577;28;20028;-76
2023/05/14 00:05:23;;;;;;;13.50;8.25;;;;;;;;;;5096418;28;20031;-76
2023/05/14 00:07:49;;;;;;;12.82;7.40;;;;;;;;;;5096385;28;20093;-76
2023/05/14 00:10:17;;;;;;;12.52;6.68;;;;;;;;;;5096287;28;20454;-77
2023/05/14 00:12:44;;;;;;;13.88;8.23;;;;;;;;;;5096436;28;20024;-77
2023/05/14 00:15:10;;;;;;;15.38;8.05;;;;;;;;;;5095803;28;20466;-76
2023/05/14 00:17:36;;;;;;;14.32;8.90;;;;;;;;;;5096166;28;20070;-76
2023/05/14 00:20:05;;;;;;;14.82;8.23;;;;;;;;;;5095959;28;20520;-76
2023/05/14 00:22:31;;;;;;;10.85;6.50;;;;;;;;;;5096241;28;20020;-76
2023/05/14 00:24:57;;;;;;;14.65;7.97;;;;;;;;;;5096009;28;20069;-77
2023/05/14 00:27:23;;;;;;;14.07;9.10;;;;;;;;;;5095805;28;20027;-77
2023/05/14 00:29:49;;;;;;;15.63;9.07;;;;;;;;;;5095845;28;20031;-77
2023/05/14 00:32:16;;;;;;;18.15;8.75;;;;;;;;;;5095857;28;20412;-77
2023/05/14 00:34:41;;;;;;;17.40;8.30;;;;;;;;;;5096210;28;20043;-77
2023/05/14 00:37:07;;;;;;;16.95;9.82;;;;;;;;;;5095934;28;20474;-77
2023/05/14 00:39:33;;;;;;;16.50;10.10;;;;;;;;;;5095685;28;20099;-77
2023/05/14 00:41:59;;;;;;;18.10;10.35;;;;;;;;;;5095689;28;20035;-77
2023/05/14 00:44:35;;;;;;;18.25;10.32;;;;;;;;;;5077553;28;20025;-77
2023/05/14 00:47:01;;;;;;;16.67;9.95;;;;;;;;;;5095917;28;20031;-77
2023/05/14 00:49:27;;;;;;;15.82;8.80;;;;;;;;;;5095558;28;20023;-77
2023/05/14 00:51:53;;;;;;;16.90;10.30;;;;;;;;;;5095794;28;20028;-77
2023/05/14 00:54:20;;;;;;;18.45;9.57;;;;;;;;;;5095764;28;20089;-77
2023/05/14 00:56:46;;;;;;;18.95;10.02;;;;;;;;;;5095209;28;20032;-77
2023/05/14 00:59:13;;;;;;;15.55;8.82;;;;;;;;;;5081828;28;20020;-77
2023/05/14 01:01:39;;;;;;;18.48;9.35;;;;;;;;;;5095271;28;20467;-77
2023/05/14 01:04:06;;;;;;;14.00;8.32;;;;;;;;;;5095331;28;20085;-77
2023/05/14 01:06:44;;;;;;;15.80;8.57;;;;;;;;;;5095365;28;20043;-77
2023/05/14 01:09:17;;;;;;;18.75;8.50;;;;;;;;;;5095330;28;20043;-77
2023/05/14 01:11:43;;;;;;;14.32;7.32;;;;;;;;;;5095012;28;20063;-77
2023/05/14 01:14:09;;;;;;;18.38;9.57;;;;;;;;;;5095257;28;20060;-77
2023/05/14 01:16:36;;;;;;;17.63;9.15;;;;;;;;;;5074452;28;20085;-77
2023/05/14 01:19:04;;;;;;;18.52;9.52;;;;;;;;;;5074769;28;20064;-77
2023/05/14 01:21:37;;;;;;;23.98;10.88;;;;;;;;;;5093094;28;20016;-77
2023/05/14 01:24:03;;;;;;;13.18;7.35;;;;;;;;;;5095341;28;20024;-77
2023/05/14 01:26:30;;;;;;;18.38;10.07;;;;;;;;;;5094590;28;20493;-77
2023/05/14 01:29:01;;;;;;;14.90;7.57;;;;;;;;;;5094230;28;20013;-77
2023/05/14 01:31:30;;;;;;;14.13;6.45;;;;;;;;;;5081511;28;20028;-78
2023/05/14 01:33:59;;;;;;;12.45;6.03;;;;;;;;;;5095567;28;20032;-78
2023/05/14 01:36:25;;;;;;;18.63;9.07;;;;;;;;;;5078062;28;20417;-77
2023/05/14 01:38:51;;;;;;;13.05;7.10;;;;;;;;;;5086273;28;20027;-77
2023/05/14 01:41:18;;;;;;;11.88;5.55;;;;;;;;;;5094530;28;20382;-77
2023/05/14 01:43:45;;;;;;;12.00;6.20;;;;;;;;;;5094982;28;20028;-77
2023/05/14 01:46:11;;;;;;;14.68;7.53;;;;;;;;;;5094525;28;20030;-77
2023/05/14 01:48:37;;;;;;;10.32;4.60;;;;;;;;;;5094751;28;20020;-77
2023/05/14 01:51:05;;;;;;;12.55;6.85;;;;;;;;;;5094168;28;20032;-77
2023/05/14 01:53:33;;;;;;;11.90;7.00;;;;;;;;;;5094806;28;20030;-77
2023/05/14 01:56:00;;;;;;;16.25;7.28;;;;;;;;;;5094233;28;20085;-77
2023/05/14 01:58:26;;;;;;;14.93;7.43;;;;;;;;;;5094243;28;20063;-77
2023/05/14 02:00:51;;;;;;;16.38;7.63;;;;;;;;;;5094205;28;20024;-77
2023/05/14 02:03:17;;;;;;;13.13;6.22;;;;;;;;;;5076110;28;20028;-77
2023/05/14 02:05:43;;;;;;;15.57;7.10;;;;;;;;;;5094221;28;20473;-77
2023/05/14 02:08:09;;;;;;;13.52;7.38;;;;;;;;;;5094034;28;20028;-77
2023/05/14 02:10:35;;;;;;;13.48;7.65;;;;;;;;;;5094196;28;20016;-77
2023/05/14 02:13:02;;;;;;;16.85;8.50;;;;;;;;;;5092635;28;20056;-77
2023/05/14 02:15:30;;;;;;;12.93;7.65;;;;;;;;;;5093459;28;20024;-77
2023/05/14 02:17:56;;;;;;;14.82;8.18;;;;;;;;;;5093653;28;20501;-77
2023/05/14 02:20:21;;;;;;;16.90;8.40;;;;;;;;;;5093670;28;20025;-77
2023/05/14 02:22:47;;;;;;;14.25;8.00;;;;;;;;;;5079150;28;20025;-77
2023/05/14 02:25:13;;;;;;;15.85;7.97;;;;;;;;;;5094055;28;20063;-77
2023/05/14 02:27:39;;;;;;;15.10;8.75;;;;;;;;;;5093827;28;20027;-77
2023/05/14 02:30:06;;;;;;;17.15;9.90;;;;;;;;;;5093757;28;20035;-77
2023/05/14 02:32:32;;;;;;;16.10;8.43;;;;;;;;;;5093975;28;20024;-77
2023/05/14 02:34:58;;;;;;;18.90;8.70;;;;;;;;;;5094786;28;20105;-77
2023/05/14 02:37:23;;;;;;;16.13;9.20;;;;;;;;;;5094459;28;20103;-77
2023/05/14 02:39:49;;;;;;;16.23;8.70;;;;;;;;;;5094082;28;20031;-77
2023/05/14 02:42:15;;;;;;;16.70;9.85;;;;;;;;;;5093877;28;20551;-77
2023/05/14 02:44:41;;;;;;;15.82;10.23;;;;;;;;;;5093896;28;20020;-77
2023/05/14 02:47:07;;;;;;;14.75;7.15;;;;;;;;;;5075145;28;20051;-77
2023/05/14 02:49:33;;;;;;;17.48;8.85;;;;;;;;;;5093750;28;20586;-77
2023/05/14 02:51:59;;;;;;;17.35;9.77;;;;;;;;;;5093654;28;20035;-77
2023/05/14 02:54:26;;;;;;;17.05;10.23;;;;;;;;;;5093487;28;20073;-77
2023/05/14 02:56:51;;;;;;;19.33;9.20;;;;;;;;;;5093392;28;20658;-77
2023/05/14 02:59:18;;;;;;;17.83;10.32;;;;;;;;;;5093766;28;20031;-77
2023/05/14 03:01:44;;;;;;;18.13;10.20;;;;;;;;;;5093703;28;20039;-77
2023/05/14 03:04:10;;;;;;;22.27;10.50;;;;;;;;;;5093709;28;20024;-77
2023/05/14 03:06:36;;;;;;;20.42;10.10;;;;;;;;;;5093643;28;20031;-77
2023/05/14 03:09:02;;;;;;;16.73;10.07;;;;;;;;;;5094115;28;20028;-77
2023/05/14 03:11:28;;;;;;;17.73;9.50;;;;;;;;;;5093955;28;20051;-78
2023/05/14 03:13:54;;;;;;;20.42;10.45;;;;;;;;;;5092230;28;20079;-78
2023/05/14 03:16:19;;;;;;;17.25;7.82;;;;;;;;;;5075286;28;20109;-77
2023/05/14 03:18:45;;;;;;;14.75;7.88;;;;;;;;;;5075260;28;20413;-77
2023/05/14 03:21:11;;;;;;;18.92;9.32;;;;;;;;;;5093237;28;20111;-77
2023/05/14 03:23:38;;;;;;;20.92;9.43;;;;;;;;;;5093391;28;20024;-77
2023/05/14 03:26:04;;;;;;;18.73;9.02;;;;;;;;;;5093280;28;20034;-77
2023/05/14 03:28:30;;;;;;;10.82;6.05;;;;;;;;;;5093816;28;20600;-77
2023/05/14 03:30:56;;;;;;;17.67;8.52;;;;;;;;;;5093882;28;20053;-78
2023/05/14 03:33:22;;;;;;;10.65;5.13;;;;;;;;;;5094568;28;20028;-78
2023/05/14 03:35:48;;;;;;;16.55;8.10;;;;;;;;;;5076487;28;20028;-78
2023/05/14 03:38:16;;;;;;;12.45;6.78;;;;;;;;;;5093836;28;20051;-77
2023/05/14 03:40:44;;;;;;;11.85;6.25;;;;;;;;;;5089120;28;20516;-77
2023/05/14 03:43:10;;;;;;;12.93;7.72;;;;;;;;;;5093395;28;20031;-78
2023/05/14 03:45:36;;;;;;;14.68;6.72;;;;;;;;;;5093283;28;20031;-78
2023/05/14 03:48:02;;;;;;;16.35;7.38;;;;;;;;;;5093701;28;20036;-77
2023/05/14 03:50:28;;;;;;;11.98;6.75;;;;;;;;;;5092853;28;20043;-77
2023/05/14 03:52:55;;;;;;;13.52;6.43;;;;;;;;;;5092528;28;20032;-77
2023/05/14 03:55:21;;;;;;;15.63;7.53;;;;;;;;;;5092850;28;20034;-77
2023/05/14 03:57:47;;;;;;;10.88;6.88;;;;;;;;;;5092590;28;20020;-77
2023/05/14 04:00:14;;;;;;;11.77;6.22;;;;;;;;;;5092541;28;20639;-77
2023/05/14 04:02:40;;;;;;;14.35;7.32;;;;;;;;;;5092519;28;20471;-77
2023/05/14 04:05:06;;;;;;;14.77;5.93;;;;;;;;;;5074330;28;20027;-77
2023/05/14 04:07:32;;;;;;;15.35;6.72;;;;;;;;;;5092663;28;20474;-77
2023/05/14 04:09:58;;;;;;;16.02;6.80;;;;;;;;;;5092432;28;20027;-77
2023/05/14 04:12:25;;;;;;;8.63;5.60;;;;;;;;;;5092646;28;20048;-77
2023/05/14 04:14:51;;;;;;;9.88;4.30;;;;;;;;;;5091137;28;20044;-77
2023/05/14 04:17:17;;;;;;;13.95;5.95;;;;;;;;;;5092495;28;20454;-77
2023/05/14 04:19:43;;;;;;;10.80;6.60;;;;;;;;;;5092249;28;20024;-77
2023/05/14 04:22:09;;;;;;;11.68;6.10;;;;;;;;;;5092323;28;20024;-77
2023/05/14 04:24:36;;;;;;;11.43;5.75;;;;;;;;;;5092463;28;20035;-77
2023/05/14 04:27:03;;;;;;;13.27;5.32;;;;;;;;;;5092508;28;20475;-77
2023/05/14 04:29:29;;;;;;;10.73;5.85;;;;;;;;;;5092245;28;20035;-77
2023/05/14 04:31:55;;;;;;;10.50;5.53;;;;;;;;;;5092521;28;20111;-77
2023/05/14 04:34:21;;;;;;;10.38;5.82;;;;;;;;;;5092614;28;20056;-77
2023/05/14 04:36:47;;;;;;;12.32;5.40;;;;;;;;;;5092491;28;20077;-77
2023/05/14 04:39:13;;;;;;;16.63;8.30;;;;;;;;;;5096049;28;20172;-77
2023/05/14 04:41:39;;;;;;;10.90;6.45;;;;;;;;;;5096282;28;20028;-77
2023/05/14 04:44:06;;;;;;;13.38;6.50;;;;;;;;;;5085509;28;20024;-77
2023/05/14 04:46:32;;;;;;;16.13;8.10;;;;;;;;;;5086933;28;20028;-77
2023/05/14 04:48:58;;;;;;;13.77;7.22;;;;;;;;;;5077492;28;20047;-77
2023/05/14 04:51:23;;;;;;;19.08;8.68;;;;;;;;;;5095720;28;20027;-77
2023/05/14 04:53:49;;;;;;;13.13;7.80;;;;;;;;;;5064392;28;20032;-77
2023/05/14 04:56:15;;;;;;;15.75;7.40;;;;;;;;;;5095322;28;20050;-77
2023/05/14 04:58:41;;;;;;;13.88;6.93;;;;;;;;;;5095507;28;20028;-77
2023/05/14 05:01:08;;;;;;;11.23;7.00;;;;;;;;;;5089368;28;20359;-77
2023/05/14 05:03:34;;;;;;;21.42;8.20;;;;;;;;;;5094166;28;20451;-77
2023/05/14 05:06:02;;;;;;;12.93;6.45;;;;;;;;;;5077888;28;20036;-77
2023/05/14 05:08:28;;;;;;;11.07;6.88;;;;;;;;;;5095688;28;20070;-77
2023/05/14 05:10:54;;;;;;;12.45;5.40;;;;;;;;;;5087765;28;20394;-77
2023/05/14 05:13:20;;;;;;;12.70;5.97;;;;;;;;;;5094226;28;20113;-77
2023/05/14 05:15:46;;;;;;;12.13;6.10;;;;;;;;;;5081640;28;20401;-77
2023/05/14 05:18:12;;;;;;;10.25;5.82;;;;;;;;;;5095241;28;20028;-77
2023/05/14 05:20:38;;;;;;;12.75;5.93;;;;;;;;;;5095065;28;20394;-77
2023/05/14 05:23:04;;;;;;;13.88;5.88;;;;;;;;;;5077227;28;20035;-78
2023/05/14 05:25:31;;;;;;;12.98;6.07;;;;;;;;;;5095363;28;20020;-77
2023/05/14 05:27:57;;;;;;;12.32;6.35;;;;;;;;;;5094954;28;20020;-78
2023/05/14 05:30:23;;;;;;;14.05;6.10;;;;;;;;;;5094992;28;20378;-77
2023/05/14 05:32:49;;;;;;;12.68;7.13;;;;;;;;;;5086831;28;20028;-78
2023/05/14 05:35:16;;;;;;;13.48;5.95;;;;;;;;;;5090246;28;20055;-77
2023/05/14 05:37:44;;;;;;;13.02;6.20;;;;;;;;;;5094717;28;20416;-77
2023/05/14 05:40:10;;;;;;;10.95;5.43;;;;;;;;;;5094995;28;20076;-77
2023/05/14 05:42:36;;;;;;;7.65;3.25;;;;;;;;;;5094527;28;20020;-77
2023/05/14 05:45:02;;;;;;;6.30;3.42;;;;;;;;;;5094430;28;20032;-77
2023/05/14 05:47:28;;;;;;;15.60;5.57;;;;;;;;;;5094377;28;20094;-77
2023/05/14 05:49:54;;;;;;;12.15;4.97;;;;;;;;;;5097788;28;20379;-79
2023/05/14 05:52:21;;;;;;;7.07;4.65;;;;;;;;;;5096078;28;20032;-76
2023/05/14 05:54:46;;;;;;;9.98;5.18;;;;;;;;;;5092644;28;20084;-77
2023/05/14 05:57:13;;;;;;;10.80;4.15;;;;;;;;;;5094311;28;20479;-77
2023/05/14 05:59:39;;;;;;;7.50;4.45;;;;;;;;;;5093956;28;20391;-77
2023/05/14 06:02:05;;;;;;;10.05;4.40;;;;;;;;;;5094158;28;20459;-77
2023/05/14 06:04:31;;;;;;;9.77;3.33;;;;;;;;;;5091544;28;20032;-77
2023/05/14 06:06:59;;;;;;;9.73;4.53;;;;;;;;;;5074126;28;20035;-77
2023/05/14 06:09:25;;;;;;;11.65;4.03;;;;;;;;;;5090731;28;20024;-77
2023/05/14 06:11:51;;;;;;;10.30;4.30;;;;;;;;;;5070379;28;20016;-77
2023/05/14 06:14:17;;;;;;;10.10;4.88;;;;;;;;;;5090369;28;20055;-77
2023/05/14 06:16:43;;;;;;;13.98;4.65;;;;;;;;;;5079381;28;20077;-77
2023/05/14 06:19:09;;;;;;;10.93;4.68;;;;;;;;;;5091044;28;20436;-77
2023/05/14 06:21:35;;;;;;;8.15;4.07;;;;;;;;;;5088100;28;20025;-77
2023/05/14 06:24:01;;;;;;;11.80;4.80;;;;;;;;;;5081775;28;20075;-77
2023/05/14 06:26:27;;;;;;;8.30;4.55;;;;;;;;;;5083896;28;20378;-76
2023/05/14 06:28:54;;;;;;;6.75;3.83;;;;;;;;;;5093796;28;20012;-77
2023/05/14 06:31:20;;;;;;;9.95;4.40;;;;;;;;;;5093679;28;20020;-77
2023/05/14 06:33:46;;;;;;;9.45;4.60;;;;;;;;;;5093569;28;20557;-77
2023/05/14 06:36:12;;;;;;;9.10;4.70;;;;;;;;;;5093470;28;20024;-77
2023/05/14 06:38:37;;;;;;;10.05;4.82;;;;;;;;;;5093232;28;20035;-77
2023/05/14 06:41:03;;;;;;;11.90;4.72;;;;;;;;;;5074993;28;20371;-77
2023/05/14 06:43:29;;;;;;;9.20;5.22;;;;;;;;;;5087395;28;20028;-77
2023/05/14 06:45:55;;;;;;;9.38;3.97;;;;;;;;;;5073190;28;20108;-77
2023/05/14 06:48:21;;;;;;;10.48;4.13;;;;;;;;;;5091610;28;20429;-77
2023/05/14 06:50:48;;;;;;;9.50;4.88;;;;;;;;;;5093257;28;20023;-77
2023/05/14 06:53:14;;;;;;;10.43;5.30;;;;;;;;;;5093198;28;20466;-77
2023/05/14 06:55:40;;;;;;;7.13;3.83;;;;;;;;;;5093038;28;20028;-77
2023/05/14 06:58:07;;;;;;;8.75;4.70;;;;;;;;;;5092902;28;20095;-76
2023/05/14 07:00:33;;;;;;;9.10;4.72;;;;;;;;;;5092765;28;20024;-77
2023/05/14 07:02:59;;;;;;;8.00;4.43;;;;;;;;;;5093200;28;20070;-77
2023/05/14 07:05:25;;;;;;;7.65;3.60;;;;;;;;;;5092947;28;20054;-77
2023/05/14 07:07:51;;;;;;;10.63;4.85;;;;;;;;;;5092646;28;20024;-77
2023/05/14 07:10:17;;;;;;;11.13;4.75;;;;;;;;;;5092830;28;20463;-77
2023/05/14 07:12:44;;;;;;;7.93;3.97;;;;;;;;;;5088347;28;20055;-78
2023/05/14 07:15:11;;;;;;;8.63;4.20;;;;;;;;;;5072534;28;20049;-77
2023/05/14 07:17:37;;;;;;;11.68;5.10;;;;;;;;;;5077960;28;20073;-77
2023/05/14 07:20:03;;;;;;;6.38;4.13;;;;;;;;;;5074428;28;20397;-77
2023/05/14 07:22:29;;;;;;;10.85;5.55;;;;;;;;;;5092926;28;20020;-78
2023/05/14 07:24:55;;;;;;;6.85;4.13;;;;;;;;;;5094050;28;20024;-77
2023/05/14 07:27:21;;;;;;;11.70;4.93;;;;;;;;;;5095850;28;20398;-77
2023/05/14 07:29:46;;;;;;;8.25;3.83;;;;;;;;;;5094419;28;20113;-78
2023/05/14 07:32:12;;;;;;;6.78;3.80;;;;;;;;;;5094870;28;20027;-78
2023/05/14 07:34:39;;;;;;;9.43;5.40;;;;;;;;;;5080164;28;20142;-78
2023/05/14 07:37:05;;;;;;;8.68;4.57;;;;;;;;;;5088301;28;20036;-78
2023/05/14 07:39:31;;;;;;;13.65;4.95;;;;;;;;;;5087912;28;20032;-78
2023/05/14 07:41:57;;;;;;;9.75;4.60;;;;;;;;;;5062532;28;20024;-77
2023/05/14 07:44:23;;;;;;;9.85;4.78;;;;;;;;;;5095293;28;20026;-78
2023/05/14 07:46:49;;;;;;;9.43;4.20;;;;;;;;;;5096287;28;20036;-78
2023/05/14 07:49:15;;;;;;;6.88;4.03;;;;;;;;;;5094985;28;20066;-78
2023/05/14 07:51:41;;;;;;;9.40;4.00;;;;;;;;;;5095633;28;20028;-78
2023/05/14 07:54:06;;;;;;;12.18;5.30;;;;;;;;;;5094365;28;20016;-78
2023/05/14 07:56:34;;;;;;;11.00;5.00;;;;;;;;;;5090059;28;20036;-78
2023/05/14 07:59:01;;;;;;;7.95;3.97;;;;;;;;;;5076357;28;20051;-78
2023/05/14 08:01:27;;;;;;;9.05;4.53;;;;;;;;;;5095189;28;20051;-78
2023/05/14 08:03:53;;;;;;;9.43;4.35;;;;;;;;;;5096576;28;20031;-77
2023/05/14 08:06:20;;;;;;;9.40;4.75;;;;;;;;;;5089410;28;20035;-78
2023/05/14 08:08:46;;;;;;;11.25;4.72;;;;;;;;;;5089162;28;20050;-78
2023/05/14 08:11:12;;;;;;;6.30;2.95;;;;;;;;;;5095707;28;20032;-78
2023/05/14 08:13:38;;;;;;;13.48;4.47;;;;;;;;;;5097352;28;20089;-78
2023/05/14 08:16:04;;;;;;;6.93;4.78;;;;;;;;;;5100251;28;20042;-78
2023/05/14 08:18:30;;;;;;;11.55;5.03;;;;;;;;;;5088321;28;20397;-78
2023/05/14 08:20:56;;;;;;;8.52;4.78;;;;;;;;;;5100431;28;20546;-78
2023/05/14 08:23:22;;;;;;;9.15;5.25;;;;;;;;;;5088333;28;20123;-78
2023/05/14 08:25:48;;;;;;;9.02;3.40;;;;;;;;;;5084474;28;20066;-78
2023/05/14 08:28:14;;;;;;;10.27;4.63;;;;;;;;;;5100595;28;20032;-78
2023/05/14 08:30:40;;;;;;;11.73;4.72;;;;;;;;;;5101971;28;20051;-78
2023/05/14 08:33:06;;;;;;;9.77;4.70;;;;;;;;;;5087200;28;20521;-78
2023/05/14 08:35:32;;;;;;;9.45;4.47;;;;;;;;;;5098452;28;20031;-77
2023/05/14 08:37:58;;;;;;;6.70;3.85;;;;;;;;;;5095724;28;20050;-79
2023/05/14 08:40:25;;;;;;;8.98;4.40;;;;;;;;;;5085111;28;20538;-78
2023/05/14 08:42:51;;;;;;;8.40;3.80;;;;;;;;;;5097516;28;20034;-78
2023/05/14 08:45:18;;;;;;;8.73;4.20;;;;;;;;;;5096620;28;20090;-78
2023/05/14 08:47:51;;;;;;;7.72;3.90;;;;;;;;;;5097469;28;20016;-77
2023/05/14 08:50:18;;;;;;;9.13;4.30;;;;;;;;;;5095315;28;20024;-77
2023/05/14 08:52:44;;;;;;;5.60;3.33;;;;;;;;;;5097701;28;20012;-78
2023/05/14 08:55:11;;;;;;;14.98;4.88;;;;;;;;;;5094165;28;20098;-78
2023/05/14 08:57:37;;;;;;;7.43;4.50;;;;;;;;;;5096886;28;20501;-77
2023/05/14 09:00:07;;;;;;;9.60;4.32;;;;;;;;;;5081369;28;20071;-77
2023/05/14 09:02:34;;;;;;;9.70;5.22;;;;;;;;;;5097729;28;20020;-78
2023/05/14 09:05:01;;;;;;;9.60;4.20;;;;;;;;;;5098108;28;20024;-78
2023/05/14 09:07:27;;;;;;;8.73;4.20;;;;;;;;;;5100100;28;20024;-79
2023/05/14 09:09:54;;;;;;;6.18;4.20;;;;;;;;;;5070792;28;20028;-79
2023/05/14 09:12:20;;;;;;;10.48;4.78;;;;;;;;;;5079290;28;20024;-78
2023/05/14 09:14:47;;;;;;;7.90;4.60;;;;;;;;;;5094503;28;20048;-77
2023/05/14 09:17:13;;;;;;;7.40;4.35;;;;;;;;;;5094966;28;20074;-76
2023/05/14 09:19:40;;;;;;;8.75;4.90;;;;;;;;;;5095148;28;20051;-76
2023/05/14 09:22:08;;;;;;;8.95;4.88;;;;;;;;;;5094585;28;20028;-77
2023/05/14 09:24:34;;;;;;;6.88;4.57;;;;;;;;;;5093792;28;20028;-77
2023/05/14 09:27:01;;;;;;;5.53;3.92;;;;;;;;;;5094917;28;20103;-77
2023/05/14 09:29:28;;;;;;;8.20;4.20;;;;;;;;;;5094736;28;20050;-77
2023/05/14 09:31:55;;;;;;;8.05;4.57;;;;;;;;;;5094709;28;20030;-77
2023/05/14 09:34:29;;;;;;;7.57;3.65;;;;;;;;;;5094630;28;20401;-76
2023/05/14 09:36:58;;;;;;;6.00;4.10;;;;;;;;;;5094657;28;20028;-76
2023/05/14 09:39:25;;;;;;;5.05;3.80;;;;;;;;;;5092048;28;20448;-76
2023/05/14 09:41:51;;;;;;;6.88;3.78;;;;;;;;;;5093455;28;20042;-76
2023/05/14 09:44:18;;;;;;;7.78;4.57;;;;;;;;;;5094803;28;20023;-76
2023/05/14 09:46:44;;;;;;;7.13;3.90;;;;;;;;;;5088086;28;20024;-76
2023/05/14 09:49:10;;;;;;;7.70;4.70;;;;;;;;;;5089515;28;20051;-76
2023/05/14 09:51:37;;;;;;;9.10;4.55;;;;;;;;;;5081857;28;20047;-76
2023/05/14 09:54:06;;;;;;;8.65;4.50;;;;;;;;;;5093960;28;20489;-76
2023/05/14 09:56:33;;;;;;;9.65;4.90;;;;;;;;;;5091955;28;20029;-76
2023/05/14 09:58:59;;;;;;;9.13;5.07;;;;;;;;;;5094053;28;20108;-75
2023/05/14 10:01:25;;;;;;;8.93;4.55;;;;;;;;;;5075480;28;20466;-76
2023/05/14 10:03:55;;;;;;;6.25;3.97;;;;;;;;;;5085411;28;20134;-76
2023/05/14 10:06:23;;;;;;;7.88;4.80;;;;;;;;;;5093590;28;20028;-76
2023/05/14 10:08:50;;;;;;;6.60;4.80;;;;;;;;;;5093557;28;20039;-76
2023/05/14 10:11:24;;;;;;;10.48;5.70;;;;;;;;;;5080820;28;20024;-76
2023/05/14 10:14:00;;;;;;;10.30;5.38;;;;;;;;;;5093106;28;20051;-76
2023/05/14 10:16:27;;;;;;;6.05;4.03;;;;;;;;;;5108729;28;20035;-76
2023/05/14 10:18:56;;;;;;;10.15;5.20;;;;;;;;;;5098601;28;20023;-76
2023/05/14 10:21:22;;;;;;;10.13;4.40;;;;;;;;;;5093601;28;20028;-76
2023/05/14 10:23:49;;;;;;;9.60;5.60;;;;;;;;;;5075308;28;20077;-76
2023/05/14 10:26:15;;;;;;;7.18;5.47;;;;;;;;;;5093314;28;20035;-77
2023/05/14 10:28:41;;;;;;;8.23;5.13;;;;;;;;;;5084492;28;20021;-76
2023/05/14 10:31:09;;;;;;;10.45;5.72;;;;;;;;;;5093240;28;20024;-77
2023/05/14 10:33:49;;;;;;;6.55;4.85;;;;;;;;;;5093658;28;20027;-77
2023/05/14 10:36:15;;;;;;;9.02;5.82;;;;;;;;;;5084614;28;20133;-77
2023/05/14 10:38:41;;;;;;;6.05;4.35;;;;;;;;;;5073474;28;20115;-77
2023/05/14 10:41:11;;;;;;;9.35;5.13;;;;;;;;;;5085207;28;20446;-76
2023/05/14 10:43:38;;;;;;;8.38;5.10;;;;;;;;;;5093022;28;20414;-76
2023/05/14 10:46:05;;;;;;;9.32;5.30;;;;;;;;;;5093164;28;20028;-77
2023/05/14 10:48:31;;;;;;;7.15;5.50;;;;;;;;;;5090379;28;20020;-76
2023/05/14 10:50:57;;;;;;;9.18;5.03;;;;;;;;;;5082554;28;20383;-77
2023/05/14 10:53:32;;;;;;;8.15;5.45;;;;;;;;;;5075489;28;20355;-76
2023/05/14 10:55:58;;;;;;;7.07;4.95;;;;;;;;;;5087219;28;20642;-76
2023/05/14 10:58:24;;;;;;;9.35;5.22;;;;;;;;;;5097742;28;20047;-77
2023/05/14 11:00:54;;;;;;;8.02;5.15;;;;;;;;;;5093029;28;20093;-76
2023/05/14 11:03:20;;;;;;;6.43;5.60;;;;;;;;;;5092584;28;20032;-76
2023/05/14 11:05:46;;;;;;;8.07;5.38;;;;;;;;;;5092579;28;20028;-76
2023/05/14 11:08:13;;;;;;;9.48;6.18;;;;;;;;;;5085534;28;20035;-77
2023/05/14 11:10:39;;;;;;;10.80;4.80;;;;;;;;;;5073129;28;20099;-76
2023/05/14 11:13:05;;;;;;;9.07;6.47;;;;;;;;;;5092908;28;20045;-76
2023/05/14 11:15:31;;;;;;;10.23;5.75;;;;;;;;;;5092174;28;20040;-76
2023/05/14 11:17:57;;;;;;;7.05;5.55;;;;;;;;;;5092485;28;20101;-76
2023/05/14 11:20:23;;;;;;;9.45;6.22;;;;;;;;;;5092358;28;20057;-76
2023/05/14 11:22:53;;;;;;;11.15;6.15;;;;;;;;;;5092454;28;20028;-76
2023/05/14 11:25:20;;;;;;;9.73;6.53;;;;;;;;;;5092384;28;20082;-76
2023/05/14 11:27:47;;;;;;;10.48;5.78;;;;;;;;;;5074154;28;20222;-76
2023/05/14 11:30:14;;;;;;;8.02;5.60;;;;;;;;;;5092406;28;20038;-76
2023/05/14 11:32:40;;;;;;;10.02;6.43;;;;;;;;;;5092347;28;20032;-77
2023/05/14 11:35:06;;;;;;;11.10;6.57;;;;;;;;;;5078912;28;20035;-76
2023/05/14 11:37:32;;;;;;;12.73;7.07;;;;;;;;;;5092492;28;20050;-76
2023/05/14 11:40:00;;;;;;;11.95;7.40;;;;;;;;;;5092210;28;20020;-76
2023/05/14 11:42:26;;;;;;;10.32;6.07;;;;;;;;;;5092004;28;20366;-76
2023/05/14 11:44:52;;;;;;;12.80;7.53;;;;;;;;;;5092539;28;20031;-76
2023/05/14 11:47:20;;;;;;;11.63;7.07;;;;;;;;;;5093043;28;20091;-76
2023/05/14 11:49:46;;;;;;;10.23;6.45;;;;;;;;;;5096255;28;20036;-77
2023/05/14 11:52:13;;;;;;;9.02;6.68;;;;;;;;;;5096670;28;20012;-77
2023/05/14 11:54:39;;;;;;;6.50;5.80;;;;;;;;;;5096296;28;20016;-77
2023/05/14 11:57:09;;;;;;;9.95;6.20;;;;;;;;;;5095925;28;20063;-77
2023/05/14 11:59:35;;;;;;;;;;;;;;;;;;5096650;28;20036;-77
2023/05/14 12:02:03;;;;;;;7.70;5.28;;;;;;;;;;5096233;28;19957;-77
2023/05/14 12:04:30;;;;;;;9.93;6.95;;;;;;;;;;5096340;28;20027;-77
2023/05/14 12:06:57;;;;;;;10.77;6.68;;;;;;;;;;5095982;28;20032;-77
2023/05/14 12:09:23;;;;;;;10.15;6.50;;;;;;;;;;5095925;28;20361;-77
2023/05/14 12:11:50;;;;;;;13.48;6.93;;;;;;;;;;5096532;28;20043;-77
2023/05/14 12:14:17;;;;;;;9.10;6.40;;;;;;;;;;5094440;28;20181;-77
2023/05/14 12:16:43;;;;;;;12.20;6.47;;;;;;;;;;5095748;28;20481;-77
2023/05/14 12:19:10;;;;;;;12.38;6.63;;;;;;;;;;5095794;28;20127;-78
2023/05/14 12:21:36;;;;;;;10.20;6.68;;;;;;;;;;5096225;28;20024;-78
2023/05/14 12:24:03;;;;;;;14.75;7.00;;;;;;;;;;5094552;28;20027;-78
2023/05/14 12:26:32;;;;;;;13.50;6.82;;;;;;;;;;5070791;28;20710;-78
2023/05/14 12:29:02;;;;;;;9.93;7.82;;;;;;;;;;5096772;28;20107;-78
2023/05/14 12:31:31;;;;;;;11.23;7.28;;;;;;;;;;5097918;28;20093;-78
2023/05/14 12:33:57;;;;;;;8.52;7.05;;;;;;;;;;5067236;28;20416;-78
2023/05/14 12:36:23;;;;;;;11.25;6.80;;;;;;;;;;5097667;28;20028;-78
2023/05/14 12:38:50;;;;;;;12.13;7.82;;;;;;;;;;5083296;28;20073;-78
2023/05/14 12:41:17;;;;;;;12.13;8.70;;;;;;;;;;5101318;28;20054;-78
2023/05/14 12:43:43;;;;;;;13.68;8.27;;;;;;;;;;5074339;28;20073;-78
2023/05/14 12:46:10;;;;;;;10.27;7.47;;;;;;;;;;5095482;28;20031;-78
2023/05/14 12:48:36;;;;;;;13.45;8.35;;;;;;;;;;5096010;28;20437;-78
2023/05/14 12:51:02;;;;;;;12.38;8.02;;;;;;;;;;5087572;28;20028;-78
2023/05/14 12:53:27;;;;;;;12.82;8.80;;;;;;;;;;5066555;28;20024;-78
2023/05/14 12:55:54;;;;;;;10.98;7.25;;;;;;;;;;5096423;28;20028;-78
2023/05/14 12:58:20;;;;;;;9.60;7.07;;;;;;;;;;5096581;28;20025;-78
2023/05/14 13:00:46;;;;;;;12.85;8.35;;;;;;;;;;5096471;28;20024;-78
2023/05/14 13:03:12;;;;;;;9.77;7.47;;;;;;;;;;5097199;28;20046;-78
2023/05/14 13:05:38;;;;;;;12.35;8.02;;;;;;;;;;5096988;28;20032;-78
2023/05/14 13:08:04;;;;;;;11.98;8.35;;;;;;;;;;5097027;28;20494;-78
2023/05/14 13:10:30;;;;;;;11.60;7.22;;;;;;;;;;5099273;28;20375;-77
2023/05/14 13:12:56;;;;;;;10.50;7.20;;;;;;;;;;5097256;28;20054;-78
2023/05/14 13:15:22;;;;;;;8.23;6.65;;;;;;;;;;5096372;28;20097;-77
2023/05/14 13:17:48;;;;;;;13.18;8.68;;;;;;;;;;5094839;28;20036;-78
2023/05/14 13:20:17;;;;;;;13.65;8.32;;;;;;;;;;5090246;28;20043;-77
2023/05/14 13:22:43;;;;;;;14.05;7.97;;;;;;;;;;5076874;28;20043;-77
2023/05/14 13:25:11;;;;;;;10.23;6.72;;;;;;;;;;5090625;28;20359;-78
2023/05/14 13:27:37;;;;;;;11.85;8.27;;;;;;;;;;5097155;28;20073;-78
2023/05/14 13:30:03;;;;;;;12.32;8.70;;;;;;;;;;5097326;28;20095;-78
2023/05/14 13:32:29;;;;;;;11.50;8.95;;;;;;;;;;5107099;28;20028;-78
2023/05/14 13:34:55;;;;;;;12.30;9.68;;;;;;;;;;5099231;28;20095;-79
2023/05/14 13:37:21;;;;;;;15.40;9.25;;;;;;;;;;5088855;28;20417;-78
2023/05/14 13:39:48;;;;;;;13.95;8.52;;;;;;;;;;5084867;28;20520;-78
2023/05/14 13:42:14;;;;;;;13.85;8.70;;;;;;;;;;5097110;28;20028;-78
2023/05/14 13:44:40;;;;;;;10.30;7.30;;;;;;;;;;5077710;28;20073;-78
2023/05/14 13:47:06;;;;;;;11.20;8.20;;;;;;;;;;5095025;28;20109;-78
2023/05/14 13:49:32;;;;;;;10.65;7.68;;;;;;;;;;5102346;28;20055;-78
2023/05/14 13:51:58;;;;;;;13.68;7.35;;;;;;;;;;5095185;28;20059;-78
2023/05/14 13:54:24;;;;;;;12.63;8.32;;;;;;;;;;5094486;28;20458;-78
2023/05/14 13:56:50;;;;;;;10.98;9.30;;;;;;;;;;5077134;28;20032;-77
2023/05/14 13:59:16;;;;;;;9.93;7.57;;;;;;;;;;5100157;28;20055;-78
2023/05/14 14:01:42;;;;;;;11.10;8.13;;;;;;;;;;5078114;28;20096;-78
2023/05/14 14:04:09;;;;;;;13.27;8.38;;;;;;;;;;5095114;28;20050;-78
2023/05/14 14:06:35;;;;;;;11.25;8.80;;;;;;;;;;5094324;28;20055;-78
2023/05/14 14:09:01;;;;;;;14.57;9.15;;;;;;;;;;5098821;28;20032;-78
2023/05/14 14:11:27;;;;;;;12.60;8.73;;;;;;;;;;5105631;28;20031;-78
2023/05/14 14:13:53;;;;;;;12.20;8.80;;;;;;;;;;5094045;28;20468;-78
2023/05/14 14:16:19;;;;;;;11.43;8.55;;;;;;;;;;5094875;28;20024;-78
2023/05/14 14:18:45;;;;;;;13.38;9.15;;;;;;;;;;5094873;28;20056;-78
2023/05/14 14:21:11;;;;;;;11.60;7.97;;;;;;;;;;5094058;28;20101;-78
2023/05/14 14:23:37;;;;;;;11.38;7.28;;;;;;;;;;5094404;28;20146;-78
2023/05/14 14:26:03;;;;;;;12.98;9.65;;;;;;;;;;5113736;28;20369;-78
2023/05/14 14:28:30;;;;;;;9.57;6.30;;;;;;;;;;5103621;28;20124;-78